Time;durP1;ratioP1;P1;durP2;ratioP2;P2;SDS_P1;SDS_P2;PMS_P1;PMS_P2;Temp;Humidity;BMP_temperature;BMP_pressure;BME280_temperature;BME280_humidity;BME280_pressure;Samples;Min_cycle;Max_cycle;Signal;HPM_P1;HPM_P2
2022/01/28 00:04:49;;;;;;;1.87;0.57;;;;;;;;;;4976176;28;20454;-67
2022/01/28 00:07:16;;;;;;;0.87;0.40;;;;;;;;;;4979114;28;20470;-67
2022/01/28 00:09:43;;;;;;;1.07;0.30;;;;;;;;;;4979673;28;20481;-67
2022/01/28 00:12:10;;;;;;;1.00;0.30;;;;;;;;;;4975603;28;20562;-67
2022/01/28 00:14:54;;;;;;;1.03;0.40;;;;;;;;;;4978077;28;20531;-68
2022/01/28 00:20:36;;;;;;;0.40;0.40;;;;;;;;;;4969254;28;20878;-68
2022/01/28 00:36:42;;;;;;;1.53;0.57;;;;;;;;;;4975587;28;20243;-68
2022/01/28 00:39:08;;;;;;;0.90;0.40;;;;;;;;;;4977673;28;20557;-67
2022/01/28 00:41:35;;;;;;;1.27;0.40;;;;;;;;;;4980298;28;20451;-67
2022/01/28 00:44:02;;;;;;;0.77;0.47;;;;;;;;;;4968863;28;20470;-67
2022/01/28 00:46:29;;;;;;;1.43;0.60;;;;;;;;;;4974866;28;21095;-67
2022/01/28 00:48:56;;;;;;;2.97;0.60;;;;;;;;;;4973166;28;20871;-67
2022/01/28 00:51:26;;;;;;;3.20;0.80;;;;;;;;;;4976232;28;20458;-67
2022/01/28 00:53:53;;;;;;;2.37;0.80;;;;;;;;;;4978709;28;20476;-68
2022/01/28 00:56:20;;;;;;;1.70;0.70;;;;;;;;;;4969255;28;20521;-68
2022/01/28 00:58:46;;;;;;;1.40;0.73;;;;;;;;;;4970512;28;20480;-67
2022/01/28 01:01:13;;;;;;;3.73;1.00;;;;;;;;;;4974657;28;20998;-67
2022/01/28 01:03:40;;;;;;;3.00;0.90;;;;;;;;;;4977944;28;20539;-67
2022/01/28 01:41:50;;;;;;;2.93;1.23;;;;;;;;;;4924893;28;20461;-67
2022/01/28 01:52:23;;;;;;;2.80;0.80;;;;;;;;;;4937144;28;20482;-68
2022/01/28 01:54:50;;;;;;;5.90;0.80;;;;;;;;;;4932459;28;20480;-68
2022/01/28 01:57:17;;;;;;;2.00;0.73;;;;;;;;;;4918257;28;20467;-67
2022/01/28 01:59:44;;;;;;;2.90;0.90;;;;;;;;;;4935382;28;20284;-68
2022/01/28 02:02:11;;;;;;;5.80;1.10;;;;;;;;;;4942962;28;20474;-68
2022/01/28 02:04:38;;;;;;;4.03;0.97;;;;;;;;;;4955817;28;20457;-68
2022/01/28 02:07:05;;;;;;;3.30;0.87;;;;;;;;;;4955008;28;20464;-68
2022/01/28 02:09:32;;;;;;;4.73;0.80;;;;;;;;;;4963192;28;20550;-67
2022/01/28 02:11:58;;;;;;;1.90;0.60;;;;;;;;;;4956410;28;20234;-68
2022/01/28 02:14:25;;;;;;;2.97;0.60;;;;;;;;;;4954762;28;20496;-68
2022/01/28 02:16:52;;;;;;;3.90;0.60;;;;;;;;;;4953620;28;20465;-68
2022/01/28 02:19:18;;;;;;;2.20;0.70;;;;;;;;;;4955039;28;20263;-68
2022/01/28 02:21:50;;;;;;;2.53;0.60;;;;;;;;;;4953706;28;20459;-67
2022/01/28 02:24:22;;;;;;;2.67;0.60;;;;;;;;;;4941738;28;20449;-67
2022/01/28 02:26:49;;;;;;;2.47;0.70;;;;;;;;;;4954229;28;20471;-67
2022/01/28 02:29:26;;;;;;;3.53;1.03;;;;;;;;;;4956261;28;20240;-67
2022/01/28 02:31:53;;;;;;;2.57;0.40;;;;;;;;;;4957724;28;20243;-67
2022/01/28 02:34:20;;;;;;;1.37;0.63;;;;;;;;;;4940994;28;20460;-67
2022/01/28 02:36:47;;;;;;;1.13;0.47;;;;;;;;;;4955610;28;20967;-67
2022/01/28 02:39:13;;;;;;;1.33;0.30;;;;;;;;;;4961854;28;20836;-67
2022/01/28 02:41:44;;;;;;;0.90;0.40;;;;;;;;;;4973199;28;20232;-67
2022/01/28 02:44:35;;;;;;;0.93;0.30;;;;;;;;;;4976807;28;20467;-67
2022/01/28 02:47:03;;;;;;;0.43;0.30;;;;;;;;;;4971671;28;20516;-67
2022/01/28 02:49:35;;;;;;;1.97;0.40;;;;;;;;;;4968102;28;20467;-67
2022/01/28 02:52:03;;;;;;;0.53;0.30;;;;;;;;;;4979337;28;20232;-67
2022/01/28 02:54:32;;;;;;;1.67;0.40;;;;;;;;;;4974698;28;20236;-67
2022/01/28 02:57:03;;;;;;;0.93;0.20;;;;;;;;;;4979036;28;20235;-67
2022/01/28 02:59:30;;;;;;;0.53;0.30;;;;;;;;;;4978046;28;21194;-67
2022/01/28 03:01:57;;;;;;;0.77;0.27;;;;;;;;;;4975944;28;20521;-67
2022/01/28 03:05:01;;;;;;;0.43;0.43;;;;;;;;;;4975801;28;20498;-67
2022/01/28 03:07:11;;;;;;;0.37;0.17;;;;;;;;;;4972008;28;20462;-67
2022/01/28 03:12:33;;;;;;;0.47;0.30;;;;;;;;;;4926557;28;20478;-67
2022/01/28 03:15:05;;;;;;;1.00;0.40;;;;;;;;;;4963212;28;20698;-67
2022/01/28 03:22:45;;;;;;;0.60;0.30;;;;;;;;;;4967522;28;20495;-67
2022/01/28 03:25:11;;;;;;;0.20;0.10;;;;;;;;;;4980706;28;20477;-67
2022/01/28 03:27:51;;;;;;;0.77;0.10;;;;;;;;;;4974565;28;20455;-67
2022/01/28 03:30:17;;;;;;;1.10;0.10;;;;;;;;;;4974609;28;20451;-67
2022/01/28 03:32:44;;;;;;;0.40;0.10;;;;;;;;;;4981887;28;20467;-67
2022/01/28 03:35:37;;;;;;;0.30;0.20;;;;;;;;;;4970991;28;20465;-67
2022/01/28 03:38:17;;;;;;;0.60;0.50;;;;;;;;;;4975207;28;20576;-67
2022/01/28 03:40:54;;;;;;;1.27;0.57;;;;;;;;;;4971763;28;20240;-68
2022/01/28 03:43:49;;;;;;;1.90;0.30;;;;;;;;;;4902406;29;20992;-67
2022/01/28 03:46:31;;;;;;;0.70;0.20;;;;;;;;;;4913085;29;20559;-67
2022/01/28 03:49:09;;;;;;;0.37;0.20;;;;;;;;;;4904781;29;20462;-67
2022/01/28 03:51:42;;;;;;;0.40;0.13;;;;;;;;;;4903626;29;20886;-67
2022/01/28 03:54:18;;;;;;;0.63;0.20;;;;;;;;;;4903309;29;20598;-68
2022/01/28 03:57:07;;;;;;;0.43;0.30;;;;;;;;;;4901166;29;20491;-67
2022/01/28 04:00:34;;;;;;;0.30;0.17;;;;;;;;;;4891705;29;21062;-67
2022/01/28 04:03:38;;;;;;;1.43;0.30;;;;;;;;;;4902236;29;20458;-67
2022/01/28 04:12:10;;;;;;;0.57;0.20;;;;;;;;;;4902642;29;20461;-68
2022/01/28 04:15:05;;;;;;;0.20;0.10;;;;;;;;;;4902621;29;20553;-68
2022/01/28 04:17:40;;;;;;;0.40;0.10;;;;;;;;;;4902403;28;20257;-68
2022/01/28 04:20:19;;;;;;;0.67;0.20;;;;;;;;;;4900880;29;20559;-68
2022/01/28 04:22:52;;;;;;;0.10;0.10;;;;;;;;;;4903769;29;20989;-69
2022/01/28 04:25:45;;;;;;;0.40;0.20;;;;;;;;;;4902078;29;20888;-69
2022/01/28 04:28:38;;;;;;;0.10;0.10;;;;;;;;;;4900395;29;20545;-69
2022/01/28 04:31:14;;;;;;;0.03;0.03;;;;;;;;;;4887524;29;21154;-68
2022/01/28 04:33:49;;;;;;;0.20;0.20;;;;;;;;;;4934560;28;20477;-68
2022/01/28 04:36:34;;;;;;;0.40;0.20;;;;;;;;;;4976681;28;20478;-69
2022/01/28 04:39:18;;;;;;;0.80;0.20;;;;;;;;;;4971628;28;20456;-69
2022/01/28 04:44:19;;;;;;;0.60;0.17;;;;;;;;;;4956864;28;20475;-68
2022/01/28 04:46:55;;;;;;;0.57;0.10;;;;;;;;;;4947841;28;20584;-69
2022/01/28 04:49:39;;;;;;;0.63;0.30;;;;;;;;;;4953781;28;20455;-68
2022/01/28 05:00:26;;;;;;;1.67;0.23;;;;;;;;;;4975584;28;20481;-68
2022/01/28 05:03:10;;;;;;;0.67;0.30;;;;;;;;;;4971915;28;20985;-69
2022/01/28 05:12:19;;;;;;;0.60;0.40;;;;;;;;;;4967456;28;20519;-67
2022/01/28 05:26:37;;;;;;;1.13;0.27;;;;;;;;;;4958481;28;20796;-69
2022/01/28 05:29:19;;;;;;;2.27;0.50;;;;;;;;;;4969619;28;20447;-69
2022/01/28 05:31:52;;;;;;;2.67;0.60;;;;;;;;;;4955527;28;20478;-68
2022/01/28 05:34:25;;;;;;;1.83;0.30;;;;;;;;;;4968648;28;20783;-68
2022/01/28 05:37:02;;;;;;;0.73;0.40;;;;;;;;;;4963066;28;214201;-68
2022/01/28 05:39:44;;;;;;;1.73;0.40;;;;;;;;;;4935043;28;20744;-68
2022/01/28 05:42:33;;;;;;;1.03;0.30;;;;;;;;;;4933516;28;21851;-68
2022/01/28 05:45:14;;;;;;;0.83;0.40;;;;;;;;;;4953379;28;20479;-68
2022/01/28 05:48:06;;;;;;;12.67;1.07;;;;;;;;;;4948241;28;24743;-67
2022/01/28 05:50:35;;;;;;;1.17;0.50;;;;;;;;;;4942781;28;20468;-67
2022/01/28 05:53:23;;;;;;;1.07;0.50;;;;;;;;;;4938913;28;20547;-66
2022/01/28 05:55:55;;;;;;;1.47;0.70;;;;;;;;;;4932003;28;20464;-67
2022/01/28 05:58:31;;;;;;;2.00;0.83;;;;;;;;;;4929385;28;20472;-67
2022/01/28 06:01:08;;;;;;;1.73;0.60;;;;;;;;;;4943149;28;20463;-69
2022/01/28 06:03:40;;;;;;;0.40;0.23;;;;;;;;;;4961667;28;20244;-69
2022/01/28 06:06:41;;;;;;;0.70;0.30;;;;;;;;;;4940795;28;20237;-68
2022/01/28 06:09:36;;;;;;;4.10;0.70;;;;;;;;;;4918864;28;20461;-68
2022/01/28 06:12:16;;;;;;;2.17;0.80;;;;;;;;;;4926621;28;20509;-67
2022/01/28 06:15:28;;;;;;;1.63;0.97;;;;;;;;;;4934402;28;20461;-67
2022/01/28 06:18:30;;;;;;;3.60;1.10;;;;;;;;;;4919664;28;20457;-66
2022/01/28 06:21:13;;;;;;;2.10;1.00;;;;;;;;;;4942386;28;20971;-67
2022/01/28 06:23:55;;;;;;;1.87;0.70;;;;;;;;;;4925221;28;20473;-67
2022/01/28 06:29:19;;;;;;;1.70;0.70;;;;;;;;;;4937302;28;20464;-67
2022/01/28 06:31:47;;;;;;;4.80;1.23;;;;;;;;;;4947139;28;20856;-66
2022/01/28 06:34:14;;;;;;;1.83;1.00;;;;;;;;;;4935248;28;20556;-66
2022/01/28 06:36:41;;;;;;;3.00;1.20;;;;;;;;;;4949660;28;20471;-67
2022/01/28 06:39:07;;;;;;;3.17;1.10;;;;;;;;;;4954957;28;20472;-68
2022/01/28 06:41:34;;;;;;;2.70;0.80;;;;;;;;;;4959729;28;20470;-68
2022/01/28 06:44:01;;;;;;;3.00;1.10;;;;;;;;;;4957075;28;20407;-68
2022/01/28 06:46:28;;;;;;;3.37;0.90;;;;;;;;;;4959059;28;21389;-68
2022/01/28 06:48:55;;;;;;;6.83;1.50;;;;;;;;;;4958585;28;20467;-68
2022/01/28 06:51:22;;;;;;;2.27;1.10;;;;;;;;;;4958985;28;30850;-68
2022/01/28 06:53:49;;;;;;;3.07;1.13;;;;;;;;;;4970953;28;20468;-68
2022/01/28 06:56:16;;;;;;;5.17;1.70;;;;;;;;;;4975597;28;20922;-68
2022/01/28 06:58:42;;;;;;;4.40;1.33;;;;;;;;;;4977326;28;21198;-67
2022/01/28 07:01:09;;;;;;;4.90;1.87;;;;;;;;;;4977335;28;21307;-67
2022/01/28 07:03:37;;;;;;;2.63;1.00;;;;;;;;;;4976812;28;20467;-67
2022/01/28 07:06:05;;;;;;;5.90;1.77;;;;;;;;;;4960931;28;20483;-67
2022/01/28 07:08:32;;;;;;;3.90;1.43;;;;;;;;;;4945349;28;20469;-67
2022/01/28 07:11:02;;;;;;;8.97;1.20;;;;;;;;;;4933869;28;20863;-67
2022/01/28 07:13:30;;;;;;;95.83;45.57;;;;;;;;;;4969760;28;20286;-68
2022/01/28 07:15:57;;;;;;;12.43;8.13;;;;;;;;;;4970035;28;20463;-66
2022/01/28 07:18:24;;;;;;;5.07;2.20;;;;;;;;;;4962697;28;20472;-67
2022/01/28 07:20:51;;;;;;;2.07;1.27;;;;;;;;;;4961447;28;22954;-67
2022/01/28 07:23:18;;;;;;;2.57;1.17;;;;;;;;;;4948471;28;20478;-67
2022/01/28 07:25:45;;;;;;;1.67;0.80;;;;;;;;;;4969289;28;20463;-67
2022/01/28 07:28:11;;;;;;;5.43;1.50;;;;;;;;;;4961968;28;20462;-67
2022/01/28 07:30:38;;;;;;;4.63;1.63;;;;;;;;;;4966876;28;217053;-66
2022/01/28 07:33:07;;;;;;;3.23;1.87;;;;;;;;;;4970097;28;20450;-67
2022/01/28 07:35:34;;;;;;;3.80;1.10;;;;;;;;;;4962763;28;20863;-66
2022/01/28 07:38:01;;;;;;;5.90;4.33;;;;;;;;;;4962482;28;20532;-67
2022/01/28 07:40:28;;;;;;;2.53;2.33;;;;;;;;;;4977116;28;20557;-67
2022/01/28 07:42:55;;;;;;;3.63;2.03;;;;;;;;;;4972051;28;20447;-66
2022/01/28 07:45:22;;;;;;;22.63;9.13;;;;;;;;;;4976702;28;21103;-67
2022/01/28 07:47:49;;;;;;;6.73;2.80;;;;;;;;;;4953895;28;21192;-67
2022/01/28 07:50:16;;;;;;;27.93;14.80;;;;;;;;;;4969690;28;20556;-68
2022/01/28 07:52:43;;;;;;;6.70;3.50;;;;;;;;;;4926326;28;20503;-68
2022/01/28 07:55:11;;;;;;;4.60;1.93;;;;;;;;;;4974328;28;21028;-66
2022/01/28 07:57:38;;;;;;;3.77;1.93;;;;;;;;;;4951334;28;20458;-66
2022/01/28 08:00:05;;;;;;;3.23;1.90;;;;;;;;;;4958799;28;20540;-67
2022/01/28 08:02:37;;;;;;;3.97;1.53;;;;;;;;;;4954285;28;20467;-67
2022/01/28 08:05:05;;;;;;;5.37;2.53;;;;;;;;;;4933649;28;20475;-67
2022/01/28 08:07:32;;;;;;;4.37;3.20;;;;;;;;;;4965397;28;20449;-68
2022/01/28 08:09:59;;;;;;;3.10;1.20;;;;;;;;;;4953886;28;23925;-67
2022/01/28 08:12:26;;;;;;;4.03;1.63;;;;;;;;;;4949133;28;89531;-67
2022/01/28 08:14:53;;;;;;;2.70;1.20;;;;;;;;;;4964434;28;20225;-67
2022/01/28 08:21:19;;;;;;;3.30;1.77;;;;;;;;;;4947012;28;20517;-62
2022/01/28 08:23:46;;;;;;;3.13;1.80;;;;;;;;;;4975040;28;20470;-68
2022/01/28 08:26:14;;;;;;;4.93;2.70;;;;;;;;;;4971975;28;20449;-66
2022/01/28 08:28:41;;;;;;;3.83;1.50;;;;;;;;;;4970776;28;21048;-66
2022/01/28 08:31:10;;;;;;;3.40;1.30;;;;;;;;;;4969348;28;20535;-67
2022/01/28 08:33:37;;;;;;;3.17;1.20;;;;;;;;;;4965304;28;20967;-66
2022/01/28 08:36:05;;;;;;;2.37;0.97;;;;;;;;;;4946669;28;96991;-66
2022/01/28 08:38:43;;;;;;;3.60;0.90;;;;;;;;;;4932970;28;66449;-65
2022/01/28 08:41:12;;;;;;;4.67;1.10;;;;;;;;;;4958554;28;61235;-66
2022/01/28 08:43:40;;;;;;;2.87;0.90;;;;;;;;;;4958469;28;30419;-66
2022/01/28 08:46:07;;;;;;;5.90;0.87;;;;;;;;;;4968514;28;20251;-65
2022/01/28 08:48:34;;;;;;;5.83;1.37;;;;;;;;;;4950207;28;46751;-64
2022/01/28 08:51:02;;;;;;;4.27;1.30;;;;;;;;;;4946476;28;20463;-66
2022/01/28 08:53:31;;;;;;;4.40;1.40;;;;;;;;;;4972281;28;20524;-65
2022/01/28 08:55:59;;;;;;;4.87;1.57;;;;;;;;;;4948998;28;20464;-66
2022/01/28 08:58:25;;;;;;;1.77;0.70;;;;;;;;;;4968076;28;30363;-66
2022/01/28 09:00:53;;;;;;;1.73;1.00;;;;;;;;;;4961693;28;20271;-68
2022/01/28 09:03:20;;;;;;;2.20;1.00;;;;;;;;;;4969268;28;20468;-68
2022/01/28 09:05:47;;;;;;;3.03;1.10;;;;;;;;;;4954423;28;21567;-66
2022/01/28 09:08:14;;;;;;;3.40;1.00;;;;;;;;;;4974488;28;20858;-67
2022/01/28 09:10:43;;;;;;;1.90;0.97;;;;;;;;;;4962121;28;20822;-65
2022/01/28 09:13:22;;;;;;;2.20;0.90;;;;;;;;;;4968272;28;20457;-65
2022/01/28 09:15:50;;;;;;;2.00;0.90;;;;;;;;;;4974147;28;23777;-65
2022/01/28 09:18:18;;;;;;;2.50;0.80;;;;;;;;;;4972659;28;20463;-64
2022/01/28 09:20:45;;;;;;;2.83;0.90;;;;;;;;;;4968559;28;20803;-67
2022/01/28 09:23:12;;;;;;;1.97;0.70;;;;;;;;;;4996479;28;21012;-66
2022/01/28 09:25:39;;;;;;;1.40;0.70;;;;;;;;;;4995662;28;20465;-66
2022/01/28 09:28:06;;;;;;;2.73;1.10;;;;;;;;;;4976481;28;20892;-66
2022/01/28 09:30:35;;;;;;;2.47;0.90;;;;;;;;;;4970139;28;20466;-66
2022/01/28 09:33:02;;;;;;;2.57;0.93;;;;;;;;;;4969704;28;20859;-66
2022/01/28 09:35:29;;;;;;;1.77;1.17;;;;;;;;;;4971346;28;20463;-66
2022/01/28 09:37:56;;;;;;;2.60;1.30;;;;;;;;;;4973984;28;20454;-66
2022/01/28 09:40:23;;;;;;;2.40;0.90;;;;;;;;;;4969070;28;20468;-66
2022/01/28 09:42:52;;;;;;;2.33;1.20;;;;;;;;;;4957540;28;20463;-67
2022/01/28 09:45:21;;;;;;;2.83;1.03;;;;;;;;;;4976884;28;20557;-66
2022/01/28 09:47:51;;;;;;;1.87;1.13;;;;;;;;;;4971754;28;20501;-66
2022/01/28 09:50:21;;;;;;;2.20;0.83;;;;;;;;;;4978133;28;21212;-66
2022/01/28 09:52:49;;;;;;;2.87;1.10;;;;;;;;;;4973778;28;20451;-66
2022/01/28 09:55:17;;;;;;;4.67;1.60;;;;;;;;;;4978300;28;20599;-66
2022/01/28 09:57:47;;;;;;;2.47;1.20;;;;;;;;;;4974838;28;20521;-66
2022/01/28 10:00:14;;;;;;;2.63;1.10;;;;;;;;;;4972963;28;20325;-66
2022/01/28 10:03:01;;;;;;;2.20;0.70;;;;;;;;;;4975525;28;20501;-66
2022/01/28 10:05:28;;;;;;;2.80;1.10;;;;;;;;;;4972828;28;20463;-66
2022/01/28 10:08:08;;;;;;;1.23;0.70;;;;;;;;;;4979361;28;20556;-66
2022/01/28 10:10:51;;;;;;;3.33;1.17;;;;;;;;;;4975649;28;20455;-66
2022/01/28 10:13:26;;;;;;;3.27;1.07;;;;;;;;;;4972874;28;20228;-66
2022/01/28 10:15:57;;;;;;;2.33;1.10;;;;;;;;;;4968538;28;20457;-67
2022/01/28 10:18:45;;;;;;;3.30;1.13;;;;;;;;;;4977905;28;20466;-66
2022/01/28 10:21:16;;;;;;;2.37;1.10;;;;;;;;;;4974133;28;20529;-67
2022/01/28 10:23:56;;;;;;;2.47;1.43;;;;;;;;;;4979886;28;20547;-66
2022/01/28 10:26:30;;;;;;;4.63;1.87;;;;;;;;;;4970650;28;20450;-66
2022/01/28 10:28:57;;;;;;;6.00;2.20;;;;;;;;;;4967861;28;20451;-66
2022/01/28 10:31:33;;;;;;;3.67;1.60;;;;;;;;;;4979668;28;20460;-66
2022/01/28 10:34:08;;;;;;;2.30;1.40;;;;;;;;;;4966641;28;20463;-66
2022/01/28 10:36:40;;;;;;;3.80;1.10;;;;;;;;;;4977483;28;20982;-67
2022/01/28 10:39:18;;;;;;;3.43;0.83;;;;;;;;;;4974058;28;20533;-67
2022/01/28 10:41:52;;;;;;;2.87;1.37;;;;;;;;;;4980167;28;20596;-67
2022/01/28 10:44:18;;;;;;;2.47;0.87;;;;;;;;;;4982218;28;21043;-67
2022/01/28 10:46:50;;;;;;;1.07;0.60;;;;;;;;;;4978630;28;20544;-67
2022/01/28 10:49:17;;;;;;;4.33;1.03;;;;;;;;;;4956579;28;20455;-66
2022/01/28 10:51:49;;;;;;;2.70;1.00;;;;;;;;;;4970280;28;20450;-66
2022/01/28 10:54:17;;;;;;;4.00;1.40;;;;;;;;;;4984312;28;31053;-67
2022/01/28 10:56:51;;;;;;;3.20;1.20;;;;;;;;;;4978635;28;20474;-66
2022/01/28 10:59:18;;;;;;;4.03;1.40;;;;;;;;;;4976325;28;20461;-66
2022/01/28 11:01:45;;;;;;;5.67;1.83;;;;;;;;;;4970505;28;20459;-66
2022/01/28 11:04:13;;;;;;;3.97;1.27;;;;;;;;;;4975251;28;20224;-66
2022/01/28 11:06:40;;;;;;;3.77;1.50;;;;;;;;;;4978462;28;23673;-66
2022/01/28 11:09:09;;;;;;;1.73;1.00;;;;;;;;;;4973879;28;20279;-66
2022/01/28 11:11:36;;;;;;;3.03;0.90;;;;;;;;;;4975837;28;20889;-66
2022/01/28 11:14:03;;;;;;;1.93;1.07;;;;;;;;;;4956409;28;21299;-66
2022/01/28 11:16:30;;;;;;;5.57;2.63;;;;;;;;;;4962350;28;21142;-66
2022/01/28 11:18:57;;;;;;;2.90;1.30;;;;;;;;;;4976434;28;20451;-67
2022/01/28 11:21:30;;;;;;;2.97;1.50;;;;;;;;;;4973298;28;20228;-66
2022/01/28 11:24:08;;;;;;;2.40;0.93;;;;;;;;;;4951959;28;20460;-66
2022/01/28 11:26:39;;;;;;;3.87;0.83;;;;;;;;;;4946967;28;20548;-67
2022/01/28 11:29:11;;;;;;;3.20;0.97;;;;;;;;;;4975720;28;20466;-67
2022/01/28 11:31:47;;;;;;;3.20;1.47;;;;;;;;;;4974337;28;20455;-66
2022/01/28 11:34:16;;;;;;;7.50;2.77;;;;;;;;;;4976774;28;20459;-67
2022/01/28 11:36:43;;;;;;;5.63;1.40;;;;;;;;;;4975748;28;20547;-67
2022/01/28 11:39:30;;;;;;;3.43;1.40;;;;;;;;;;4966271;28;20452;-67
2022/01/28 11:42:03;;;;;;;3.27;1.13;;;;;;;;;;4967640;28;20464;-67
2022/01/28 11:44:40;;;;;;;8.37;3.10;;;;;;;;;;4963443;28;20455;-67
2022/01/28 11:47:10;;;;;;;4.00;1.50;;;;;;;;;;4970086;28;20466;-66
2022/01/28 11:50:01;;;;;;;6.77;2.20;;;;;;;;;;4976700;28;20230;-68
2022/01/28 11:52:43;;;;;;;10.93;4.50;;;;;;;;;;4964952;28;20454;-67
2022/01/28 11:55:26;;;;;;;5.50;2.63;;;;;;;;;;4949873;28;73659;-67
2022/01/28 11:57:59;;;;;;;4.20;2.37;;;;;;;;;;4962238;28;20466;-67
2022/01/28 12:00:29;;;;;;;6.40;2.57;;;;;;;;;;4970803;28;22472;-68
2022/01/28 12:02:56;;;;;;;10.60;3.53;;;;;;;;;;4976714;28;20456;-66
2022/01/28 12:05:29;;;;;;;6.47;1.87;;;;;;;;;;4963292;28;65533;-68
2022/01/28 12:08:05;;;;;;;17.00;6.50;;;;;;;;;;4961444;28;20462;-66
2022/01/28 12:10:39;;;;;;;22.70;8.27;;;;;;;;;;4955666;28;20462;-66
2022/01/28 12:13:12;;;;;;;19.63;7.90;;;;;;;;;;4931555;28;20474;-66
2022/01/28 12:16:02;;;;;;;11.37;4.10;;;;;;;;;;4968752;28;21380;-65
2022/01/28 12:18:44;;;;;;;51.87;16.27;;;;;;;;;;4961145;28;20469;-67
2022/01/28 12:21:12;;;;;;;21.30;6.40;;;;;;;;;;4973618;28;21030;-67
2022/01/28 12:23:40;;;;;;;117.60;28.57;;;;;;;;;;4957182;28;20459;-65
2022/01/28 12:26:07;;;;;;;41.00;10.83;;;;;;;;;;4975269;28;20904;-68
2022/01/28 12:28:35;;;;;;;110.87;24.43;;;;;;;;;;4966043;28;20476;-67
2022/01/28 12:31:06;;;;;;;24.10;7.80;;;;;;;;;;4966260;28;20571;-67
2022/01/28 12:33:38;;;;;;;132.50;32.17;;;;;;;;;;4962361;28;27235;-68
2022/01/28 12:36:15;;;;;;;125.13;40.57;;;;;;;;;;4935215;28;216544;-68
2022/01/28 12:38:44;;;;;;;6.37;2.40;;;;;;;;;;4947833;28;20470;-67
2022/01/28 12:41:15;;;;;;;3.30;2.13;;;;;;;;;;4966975;28;20470;-67
2022/01/28 12:43:42;;;;;;;7.77;2.27;;;;;;;;;;4964131;28;20607;-68
2022/01/28 12:46:11;;;;;;;4.60;1.93;;;;;;;;;;4963757;28;20513;-68
2022/01/28 12:48:48;;;;;;;7.70;3.40;;;;;;;;;;4964815;28;20462;-68
2022/01/28 12:51:15;;;;;;;10.20;3.07;;;;;;;;;;4947872;28;20476;-68
2022/01/28 12:53:44;;;;;;;6.20;1.60;;;;;;;;;;4960190;28;20793;-67
2022/01/28 12:56:11;;;;;;;5.10;1.77;;;;;;;;;;4948106;28;20462;-67
2022/01/28 12:58:40;;;;;;;3.57;1.47;;;;;;;;;;4946657;28;23572;-67
2022/01/28 13:01:08;;;;;;;3.40;1.13;;;;;;;;;;4964148;28;20451;-68
2022/01/28 13:04:01;;;;;;;4.70;1.23;;;;;;;;;;4958095;28;24920;-68
2022/01/28 13:09:21;;;;;;;3.53;1.00;;;;;;;;;;4952172;28;20461;-68
2022/01/28 13:11:52;;;;;;;3.67;0.90;;;;;;;;;;4967963;28;20456;-67
2022/01/28 13:14:20;;;;;;;4.13;0.97;;;;;;;;;;4961594;28;20463;-68
2022/01/28 13:16:48;;;;;;;4.77;1.20;;;;;;;;;;4966720;28;20451;-67
2022/01/28 13:19:15;;;;;;;5.73;1.63;;;;;;;;;;4943164;28;20463;-67
2022/01/28 13:21:42;;;;;;;3.77;1.30;;;;;;;;;;4955861;28;20941;-67
2022/01/28 13:24:19;;;;;;;4.53;1.20;;;;;;;;;;4961693;28;20493;-67
2022/01/28 13:27:02;;;;;;;2.10;0.90;;;;;;;;;;4937052;28;20461;-67
2022/01/28 13:29:31;;;;;;;6.13;1.30;;;;;;;;;;4966132;28;25595;-68
2022/01/28 13:32:00;;;;;;;3.00;1.10;;;;;;;;;;4968187;28;20474;-67
2022/01/28 13:34:27;;;;;;;4.10;1.10;;;;;;;;;;4972251;28;20463;-68
2022/01/28 13:36:55;;;;;;;2.47;1.00;;;;;;;;;;4975838;28;20470;-67
2022/01/28 13:39:23;;;;;;;2.43;1.07;;;;;;;;;;4961660;28;20486;-66
2022/01/28 13:42:05;;;;;;;3.30;1.07;;;;;;;;;;4968976;28;22980;-66
2022/01/28 13:44:34;;;;;;;4.33;1.10;;;;;;;;;;4960705;28;21959;-65
2022/01/28 13:47:01;;;;;;;7.83;1.10;;;;;;;;;;4936113;28;20478;-66
2022/01/28 13:49:33;;;;;;;4.53;1.30;;;;;;;;;;4799428;28;5094323;-66
2022/01/28 13:52:07;;;;;;;5.13;1.90;;;;;;;;;;4965461;28;20223;-68
2022/01/28 13:54:34;;;;;;;7.43;1.60;;;;;;;;;;4939225;28;20470;-68
2022/01/28 13:57:01;;;;;;;3.37;1.10;;;;;;;;;;4940768;28;38872;-67
2022/01/28 13:59:32;;;;;;;4.07;1.07;;;;;;;;;;4966587;28;20468;-67
2022/01/28 14:01:59;;;;;;;3.30;1.17;;;;;;;;;;4941525;28;20477;-67
2022/01/28 14:04:35;;;;;;;3.43;1.40;;;;;;;;;;4958115;28;24539;-67
2022/01/28 14:07:09;;;;;;;5.07;1.07;;;;;;;;;;4967954;28;23875;-67
2022/01/28 14:09:54;;;;;;;3.97;1.40;;;;;;;;;;4979025;28;20482;-67
2022/01/28 14:12:23;;;;;;;3.03;0.90;;;;;;;;;;4968771;28;20490;-67
2022/01/28 14:14:52;;;;;;;4.73;1.20;;;;;;;;;;4970175;28;20232;-67
2022/01/28 14:17:19;;;;;;;4.07;1.33;;;;;;;;;;4965486;28;20470;-67
2022/01/28 14:19:46;;;;;;;3.63;1.63;;;;;;;;;;4972881;28;20477;-66
2022/01/28 14:22:13;;;;;;;3.83;1.23;;;;;;;;;;4949762;28;20462;-67
2022/01/28 14:24:57;;;;;;;3.33;2.00;;;;;;;;;;4978134;28;21044;-67
2022/01/28 14:27:47;;;;;;;4.50;1.13;;;;;;;;;;4954820;28;20471;-67
2022/01/28 14:30:35;;;;;;;5.20;1.40;;;;;;;;;;4973489;28;20473;-67
2022/01/28 14:33:03;;;;;;;3.63;1.50;;;;;;;;;;4974647;28;20455;-67
2022/01/28 14:35:30;;;;;;;6.53;1.50;;;;;;;;;;4979847;28;20459;-67
2022/01/28 14:37:58;;;;;;;3.90;1.20;;;;;;;;;;4957139;28;20461;-67
2022/01/28 14:40:34;;;;;;;5.10;1.80;;;;;;;;;;4950393;28;20451;-67
2022/01/28 14:43:02;;;;;;;4.63;1.90;;;;;;;;;;4971849;28;20459;-67
2022/01/28 14:45:30;;;;;;;3.53;1.10;;;;;;;;;;4975238;28;21311;-67
2022/01/28 14:47:59;;;;;;;2.17;1.07;;;;;;;;;;4975848;28;20806;-68
2022/01/28 14:50:26;;;;;;;4.67;1.50;;;;;;;;;;4973913;28;20546;-67
2022/01/28 14:52:53;;;;;;;6.83;1.23;;;;;;;;;;4977700;28;20459;-67
2022/01/28 14:55:20;;;;;;;4.70;1.43;;;;;;;;;;4953727;28;21116;-70
2022/01/28 14:57:47;;;;;;;7.80;1.70;;;;;;;;;;4938763;28;20471;-76
2022/01/28 15:00:14;;;;;;;5.43;1.80;;;;;;;;;;4925016;28;34338;-76
2022/01/28 15:02:41;;;;;;;9.77;2.87;;;;;;;;;;4899125;28;20499;-73
2022/01/28 15:05:09;;;;;;;5.87;1.83;;;;;;;;;;4972650;28;20462;-72
2022/01/28 15:07:37;;;;;;;5.40;1.77;;;;;;;;;;4953172;28;20879;-74
2022/01/28 15:10:04;;;;;;;9.63;5.00;;;;;;;;;;4963213;28;20467;-72
2022/01/28 15:12:30;;;;;;;38.67;17.20;;;;;;;;;;4925203;28;20577;-72
2022/01/28 15:14:58;;;;;;;10.40;3.53;;;;;;;;;;4967753;28;20477;-72
2022/01/28 15:17:26;;;;;;;9.03;3.53;;;;;;;;;;4976242;28;20951;-73
2022/01/28 15:19:53;;;;;;;17.60;7.40;;;;;;;;;;4962103;28;28896;-72
2022/01/28 15:22:22;;;;;;;7.90;3.10;;;;;;;;;;4973371;28;20457;-72
2022/01/28 15:24:49;;;;;;;8.10;3.20;;;;;;;;;;4963930;28;43406;-72
2022/01/28 15:27:16;;;;;;;7.63;2.60;;;;;;;;;;4972421;28;21178;-72
2022/01/28 15:30:19;;;;;;;5.50;2.10;;;;;;;;;;4771771;28;5090495;-70
2022/01/28 15:37:59;;;;;;;8.93;2.93;;;;;;;;;;4769464;28;5091508;-71
2022/01/28 15:40:26;;;;;;;4.47;2.17;;;;;;;;;;4971797;28;42096;-72
2022/01/28 15:43:00;;;;;;;11.17;4.00;;;;;;;;;;4939119;28;20459;-73
2022/01/28 15:45:31;;;;;;;10.53;4.40;;;;;;;;;;4941318;28;20475;-71
2022/01/28 15:47:58;;;;;;;9.00;3.53;;;;;;;;;;4966106;28;20536;-71
2022/01/28 15:50:26;;;;;;;13.23;3.10;;;;;;;;;;4718664;28;5088851;-71
2022/01/28 15:52:54;;;;;;;12.13;4.47;;;;;;;;;;4789557;28;5095901;-72
2022/01/28 15:55:21;;;;;;;4.77;2.30;;;;;;;;;;4963576;28;20531;-71
2022/01/28 15:57:49;;;;;;;6.03;2.00;;;;;;;;;;4978060;28;20546;-72
2022/01/28 16:00:16;;;;;;;5.03;2.50;;;;;;;;;;4799475;28;5088765;-72
2022/01/28 16:02:46;;;;;;;5.23;2.37;;;;;;;;;;4757782;28;5090863;-71
2022/01/28 16:05:14;;;;;;;5.13;2.30;;;;;;;;;;4934640;28;27130;-72
2022/01/28 16:07:41;;;;;;;9.30;4.33;;;;;;;;;;4963069;28;20652;-70
2022/01/28 16:10:13;;;;;;;6.33;3.03;;;;;;;;;;4759040;28;5091607;-70
2022/01/28 16:15:23;;;;;;;19.57;7.03;;;;;;;;;;4956960;28;20527;-71
2022/01/28 16:18:01;;;;;;;5.77;2.70;;;;;;;;;;4957498;28;25683;-70
2022/01/28 16:20:30;;;;;;;12.77;5.83;;;;;;;;;;4962236;28;20461;-71
2022/01/28 16:22:57;;;;;;;6.33;2.87;;;;;;;;;;4953954;28;20260;-71
2022/01/28 16:25:24;;;;;;;18.70;7.17;;;;;;;;;;4789587;28;5089954;-70
2022/01/28 16:27:51;;;;;;;28.03;9.13;;;;;;;;;;4960401;28;20236;-70
2022/01/28 16:30:18;;;;;;;27.63;10.07;;;;;;;;;;4617016;28;5090815;-72
2022/01/28 16:32:47;;;;;;;24.10;8.20;;;;;;;;;;4962177;28;20235;-74
2022/01/28 16:35:14;;;;;;;59.00;20.93;;;;;;;;;;4924641;28;21678;-73
2022/01/28 16:37:46;;;;;;;50.53;19.10;;;;;;;;;;4942578;28;20949;-72
2022/01/28 16:40:16;;;;;;;8.17;3.93;;;;;;;;;;4576171;28;5093277;-72
2022/01/28 16:42:55;;;;;;;12.27;3.00;;;;;;;;;;4945389;28;20228;-71
2022/01/28 16:45:22;;;;;;;5.80;3.40;;;;;;;;;;4954644;28;20257;-74
2022/01/28 16:47:50;;;;;;;5.70;2.10;;;;;;;;;;4960555;28;20237;-70
2022/01/28 16:50:16;;;;;;;4.17;2.60;;;;;;;;;;4938531;28;23862;-72
2022/01/28 16:52:43;;;;;;;5.10;2.60;;;;;;;;;;4974874;28;20534;-71
2022/01/28 16:55:17;;;;;;;7.30;1.50;;;;;;;;;;4624217;28;5095135;-69
2022/01/28 16:57:45;;;;;;;14.20;9.10;;;;;;;;;;4939705;28;20380;-71
2022/01/28 17:00:12;;;;;;;10.40;1.83;;;;;;;;;;4927239;28;20463;-69
2022/01/28 17:02:39;;;;;;;8.29;2.07;;;;;;;;;;4559355;28;5095772;-72
2022/01/28 17:05:07;;;;;;;15.67;8.43;;;;;;;;;;4746880;28;5090092;-69
2022/01/28 17:07:36;;;;;;;16.87;7.20;;;;;;;;;;4962976;28;20285;-69
2022/01/28 17:10:08;;;;;;;10.30;4.83;;;;;;;;;;4965545;28;21006;-70
2022/01/28 17:12:45;;;;;;;28.13;9.43;;;;;;;;;;4954278;28;20482;-72